createdAt,value
2023-01-29T00:00:20.188Z,3.85
2023-01-29T00:03:16.698Z,3.90
2023-01-29T00:05:54.158Z,3.99
2023-01-29T00:08:44.688Z,4.09
2023-01-29T00:11:20.480Z,3.80
2023-01-29T00:13:54.415Z,3.90
2023-01-29T00:16:25.659Z,4.05
2023-01-29T00:18:59.362Z,4.22
2023-01-29T00:21:27.737Z,3.77
2023-01-29T00:24:02.492Z,2.75
2023-01-29T00:26:31.248Z,2.08
2023-01-29T00:29:02.756Z,2.35
2023-01-29T00:31:34.450Z,2.96
2023-01-29T00:34:03.626Z,3.22
2023-01-29T00:36:39.717Z,3.21
2023-01-29T00:39:11.147Z,3.21
2023-01-29T00:42:07.293Z,3.44
2023-01-29T00:45:02.121Z,3.85
2023-01-29T00:47:45.786Z,4.10
2023-01-29T00:50:36.228Z,4.13
2023-01-29T00:53:08.000Z,3.15
2023-01-29T00:55:39.526Z,2.31
2023-01-29T00:58:28.361Z,1.70
2023-01-29T01:01:04.867Z,1.22
2023-01-29T01:03:46.507Z,1.15
2023-01-29T01:06:21.072Z,2.04
2023-01-29T01:09:19.293Z,2.85
2023-01-29T01:12:15.284Z,3.34
2023-01-29T01:14:57.401Z,3.62
2023-01-29T01:17:30.862Z,3.89
2023-01-29T01:20:05.508Z,4.14
2023-01-29T01:22:42.091Z,4.25
2023-01-29T01:25:24.614Z,4.21
2023-01-29T01:28:12.115Z,3.20
2023-01-29T01:30:57.882Z,2.20
2023-01-29T01:33:37.463Z,1.70
2023-01-29T01:36:11.571Z,2.35
2023-01-29T01:38:50.456Z,3.06
2023-01-29T01:41:23.021Z,3.48
2023-01-29T01:43:55.827Z,3.84
2023-01-29T01:46:58.286Z,4.11
2023-01-29T01:49:53.387Z,4.32
2023-01-29T01:52:24.735Z,4.48
2023-01-29T01:54:53.829Z,4.03
2023-01-29T01:57:34.591Z,3.03
2023-01-29T02:00:10.801Z,2.22
2023-01-29T02:03:04.549Z,2.59
2023-01-29T02:06:01.375Z,3.11
2023-01-29T02:08:58.790Z,3.54
2023-01-29T02:12:10.940Z,3.82
2023-01-29T02:14:53.341Z,4.18
2023-01-29T02:17:24.100Z,4.13
2023-01-29T02:20:14.161Z,3.27
2023-01-29T02:23:14.587Z,2.34
2023-01-29T02:26:54.953Z,1.66
2023-01-29T02:29:36.953Z,1.06
2023-01-29T02:32:25.260Z,0.76
2023-01-29T02:35:39.163Z,0.75
2023-01-29T02:38:46.018Z,2.69
2023-01-29T02:41:29.140Z,4.27
2023-01-29T02:44:30.183Z,4.98
2023-01-29T02:47:49.045Z,5.62
2023-01-29T02:50:32.266Z,4.70
2023-01-29T02:53:11.191Z,3.33
2023-01-29T02:57:02.557Z,2.32
2023-01-29T02:59:47.578Z,2.27
2023-01-29T03:02:28.425Z,3.51
2023-01-29T03:05:03.292Z,3.84
2023-01-29T03:07:46.101Z,3.97
2023-01-29T03:10:57.943Z,4.14
2023-01-29T03:14:13.328Z,3.69
2023-01-29T03:16:51.221Z,2.49
2023-01-29T03:19:41.464Z,1.73
2023-01-29T03:22:18.751Z,2.09
2023-01-29T03:25:15.642Z,2.72
2023-01-29T03:28:35.461Z,3.34
2023-01-29T03:31:32.334Z,3.63
2023-01-29T03:34:24.802Z,3.78
2023-01-29T03:37:04.003Z,3.87
2023-01-29T03:39:32.474Z,3.64
2023-01-29T03:43:05.814Z,2.74
2023-01-29T03:45:47.420Z,1.81
2023-01-29T03:48:41.496Z,2.66
2023-01-29T03:51:56.221Z,3.40
2023-01-29T03:54:43.435Z,3.72
2023-01-29T03:57:20.968Z,3.30
2023-01-29T04:00:18.955Z,2.46
2023-01-29T04:03:20.139Z,1.59
2023-01-29T04:06:27.132Z,1.02
2023-01-29T04:09:55.083Z,1.33
2023-01-29T04:12:49.690Z,2.36
2023-01-29T04:15:21.343Z,3.03
2023-01-29T04:17:52.831Z,3.42
2023-01-29T04:20:35.842Z,3.82
2023-01-29T04:23:20.265Z,4.05
2023-01-29T04:26:18.697Z,3.72
2023-01-29T04:29:26.657Z,2.58
2023-01-29T04:32:39.033Z,1.66
2023-01-29T04:35:36.678Z,1.09
2023-01-29T04:38:55.799Z,1.26
2023-01-29T04:41:58.316Z,2.29
2023-01-29T04:44:45.180Z,3.19
2023-01-29T04:48:07.836Z,4.16
2023-01-29T04:50:58.535Z,4.06
2023-01-29T04:53:57.831Z,2.73
2023-01-29T04:57:01.144Z,1.70
2023-01-29T05:00:19.445Z,2.15
2023-01-29T05:02:51.813Z,3.00
2023-01-29T05:05:23.305Z,3.30
2023-01-29T05:07:54.868Z,3.42
2023-01-29T05:10:35.212Z,2.85
2023-01-29T05:13:10.963Z,1.89
2023-01-29T05:15:48.884Z,1.20
2023-01-29T05:18:41.200Z,1.14
2023-01-29T05:21:09.780Z,2.16
2023-01-29T05:23:53.213Z,3.18
2023-01-29T05:26:42.893Z,4.03
2023-01-29T05:29:18.228Z,4.10
2023-01-29T05:31:52.982Z,3.04
2023-01-29T05:34:43.961Z,2.06
2023-01-29T05:37:38.530Z,1.34
2023-01-29T05:40:32.262Z,1.30
2023-01-29T05:43:25.353Z,2.43
2023-01-29T05:46:11.598Z,3.34
2023-01-29T05:49:18.155Z,3.33
2023-01-29T05:52:06.834Z,2.19
2023-01-29T05:54:46.681Z,1.24
2023-01-29T05:57:31.924Z,1.61
2023-01-29T06:00:06.038Z,2.43
2023-01-29T06:02:48.357Z,2.91
2023-01-29T06:05:22.455Z,2.24
2023-01-29T06:08:13.979Z,1.42
2023-01-29T06:10:55.355Z,0.80
2023-01-29T06:13:26.708Z,1.34
2023-01-29T06:15:58.194Z,1.97
2023-01-29T06:18:32.977Z,2.58
2023-01-29T06:21:02.806Z,2.94
2023-01-29T06:23:36.672Z,2.34
2023-01-29T06:26:11.326Z,1.31
2023-01-29T06:28:42.466Z,0.71
2023-01-29T06:31:27.439Z,1.06
2023-01-29T06:34:05.330Z,1.91
2023-01-29T06:36:39.444Z,2.28
2023-01-29T06:39:10.892Z,3.09
2023-01-29T06:41:39.450Z,2.96
2023-01-29T06:44:07.896Z,2.03
2023-01-29T06:46:44.065Z,1.25
2023-01-29T06:49:15.259Z,0.66
2023-01-29T06:51:48.549Z,0.26
2023-01-29T06:54:20.101Z,0.30
2023-01-29T06:56:48.687Z,1.47
2023-01-29T06:59:25.560Z,2.58
2023-01-29T07:01:57.128Z,3.00
2023-01-29T07:04:27.954Z,2.31
2023-01-29T07:07:00.328Z,1.50
2023-01-29T07:09:31.670Z,0.88
2023-01-29T07:12:00.086Z,0.43
2023-01-29T07:14:31.567Z,0.47
2023-01-29T07:17:05.471Z,1.19
2023-01-29T07:19:43.093Z,1.76
2023-01-29T07:22:11.883Z,1.51
2023-01-29T07:24:45.789Z,0.87
2023-01-29T07:27:14.319Z,0.31
2023-01-29T07:29:45.820Z,0.06
2023-01-29T07:32:20.091Z,0.94
2023-01-29T07:34:51.280Z,1.74
2023-01-29T07:37:21.807Z,2.31
2023-01-29T07:39:53.157Z,2.43
2023-01-29T07:42:23.686Z,1.82
2023-01-29T07:44:59.945Z,1.09
2023-01-29T07:47:31.270Z,0.48
2023-01-29T07:49:59.707Z,0.11
2023-01-29T07:52:31.231Z,0.52
2023-01-29T07:55:02.780Z,1.40
2023-01-29T07:57:33.608Z,1.80
2023-01-29T08:00:10.390Z,1.33
2023-01-29T08:02:44.185Z,0.69
2023-01-29T08:05:12.838Z,0.19
2023-01-29T08:08:06.073Z,0.17
2023-01-29T08:10:40.875Z,1.12
2023-01-29T08:13:09.664Z,1.79
2023-01-29T08:15:48.476Z,2.14
2023-01-29T08:18:16.932Z,1.44
2023-01-29T08:21:16.384Z,0.73
2023-01-29T08:23:52.311Z,0.18
2023-01-29T08:26:23.962Z,-0.06
2023-01-29T08:28:55.107Z,0.68
2023-01-29T08:31:25.508Z,1.43
2023-01-29T08:34:26.793Z,1.87
2023-01-29T08:36:55.572Z,1.20
2023-01-29T08:39:33.107Z,0.58
2023-01-29T08:42:06.863Z,0.07
2023-01-29T08:44:39.847Z,-0.22
2023-01-29T08:47:08.325Z,0.23
2023-01-29T08:49:55.853Z,1.31
2023-01-29T08:52:29.968Z,2.03
2023-01-29T08:55:04.462Z,1.77
2023-01-29T08:57:35.418Z,0.93
2023-01-29T09:00:09.489Z,0.33
2023-01-29T09:02:38.061Z,-0.05
2023-01-29T09:05:09.980Z,0.63
2023-01-29T09:07:46.752Z,1.56
2023-01-29T09:10:35.584Z,1.67
2023-01-29T09:13:09.124Z,0.94
2023-01-29T09:15:40.695Z,0.35
2023-01-29T09:18:09.254Z,-0.05
2023-01-29T09:20:56.016Z,-0.20
2023-01-29T09:23:30.059Z,0.76
2023-01-29T09:25:58.539Z,1.80
2023-01-29T09:28:43.403Z,2.61
2023-01-29T09:31:17.545Z,3.22
2023-01-29T09:33:52.139Z,2.83
2023-01-29T09:36:23.996Z,2.07
2023-01-29T09:38:55.964Z,1.46
2023-01-29T09:42:12.321Z,1.12
2023-01-29T09:45:16.592Z,0.79
2023-01-29T09:47:50.932Z,0.63
2023-01-29T09:50:46.384Z,0.52
2023-01-29T09:53:33.072Z,0.43
2023-01-29T09:56:28.791Z,0.72
2023-01-29T09:59:38.683Z,1.95
2023-01-29T10:02:10.969Z,3.08
2023-01-29T10:05:18.767Z,2.72
2023-01-29T10:08:25.691Z,1.96
2023-01-29T10:12:27.811Z,1.41
2023-01-29T10:15:31.932Z,1.09
2023-01-29T10:18:22.470Z,0.90
2023-01-29T10:21:14.049Z,0.73
2023-01-29T10:23:59.414Z,0.58
2023-01-29T10:26:35.097Z,0.50
2023-01-29T10:29:12.957Z,0.44
2023-01-29T10:31:44.919Z,0.37
2023-01-29T10:34:35.931Z,0.36
2023-01-29T10:37:33.702Z,0.41
2023-01-29T10:40:59.941Z,1.67
2023-01-29T10:43:53.717Z,3.04
2023-01-29T10:47:12.081Z,2.68
2023-01-29T10:50:15.347Z,1.86
2023-01-29T10:53:31.045Z,1.38
2023-01-29T10:57:02.448Z,1.05
2023-01-29T11:00:18.430Z,0.78
2023-01-29T11:02:51.583Z,0.57
2023-01-29T11:06:11.694Z,0.42
2023-01-29T11:09:20.839Z,0.28
2023-01-29T11:12:01.041Z,0.19
2023-01-29T11:15:01.498Z,0.18
2023-01-29T11:17:30.066Z,0.22
2023-01-29T11:20:01.028Z,0.26
2023-01-29T11:22:33.272Z,0.33
2023-01-29T11:25:21.030Z,0.44
2023-01-29T11:28:02.798Z,0.45
2023-01-29T11:30:35.922Z,0.46
2023-01-29T11:33:23.761Z,0.46
2023-01-29T11:35:57.214Z,0.43
2023-01-29T11:38:32.350Z,0.38
2023-01-29T11:41:08.164Z,0.33
2023-01-29T11:43:38.797Z,0.29
2023-01-29T11:46:12.663Z,0.23
2023-01-29T11:48:51.542Z,0.21
2023-01-29T11:51:33.810Z,0.23
2023-01-29T11:54:02.969Z,0.25
2023-01-29T11:56:46.724Z,0.26
2023-01-29T11:59:50.057Z,0.27
2023-01-29T12:03:11.518Z,0.40
2023-01-29T12:05:40.772Z,0.37
2023-01-29T12:08:18.015Z,0.38
2023-01-29T12:10:49.179Z,0.39
2023-01-29T12:13:27.018Z,0.39
2023-01-29T12:16:19.155Z,0.35
2023-01-29T12:19:10.769Z,0.32
2023-01-29T12:21:52.795Z,0.28
2023-01-29T12:25:22.229Z,0.24
2023-01-29T12:28:41.781Z,0.09
2023-01-29T12:31:27.801Z,0.02
2023-01-29T12:34:53.302Z,0.01
2023-01-29T12:37:39.586Z,0.06
2023-01-29T12:40:18.476Z,0.09
2023-01-29T12:42:52.376Z,0.14
2023-01-29T12:45:25.245Z,0.18
2023-01-29T12:48:00.950Z,0.17
2023-01-29T12:50:36.789Z,0.20
2023-01-29T12:53:41.838Z,0.20
2023-01-29T12:56:16.771Z,0.21
2023-01-29T12:58:48.162Z,0.21
2023-01-29T13:01:34.623Z,0.21
2023-01-29T13:04:27.368Z,0.26
2023-01-29T13:07:19.234Z,0.26
2023-01-29T13:09:51.375Z,0.33
2023-01-29T13:12:20.988Z,0.43
2023-01-29T13:14:56.921Z,0.46
2023-01-29T13:17:36.187Z,0.45
2023-01-29T13:20:23.275Z,0.44
2023-01-29T13:23:22.892Z,0.42
2023-01-29T13:25:57.304Z,0.40
2023-01-29T13:28:27.049Z,0.44
2023-01-29T13:31:35.446Z,0.46
2023-01-29T13:34:22.541Z,0.49
2023-01-29T13:36:59.827Z,0.47
2023-01-29T13:39:37.968Z,0.47
2023-01-29T13:42:20.645Z,0.45
2023-01-29T13:44:55.376Z,0.46
2023-01-29T13:47:49.249Z,0.40
2023-01-29T13:50:36.697Z,0.38
2023-01-29T13:53:09.145Z,0.26
2023-01-29T13:55:50.951Z,0.18
2023-01-29T13:58:45.837Z,0.10
2023-01-29T14:01:49.732Z,0.05
2023-01-29T14:04:29.274Z,0.04
2023-01-29T14:07:03.497Z,-0.00
2023-01-29T14:10:23.589Z,-0.04
2023-01-29T14:13:12.041Z,-0.12
2023-01-29T14:15:40.315Z,-0.15
2023-01-29T14:18:11.580Z,-0.19
2023-01-29T14:21:08.126Z,-0.23
2023-01-29T14:23:47.093Z,-0.27
2023-01-29T14:26:36.361Z,-0.32
2023-01-29T14:29:25.491Z,-0.35
2023-01-29T14:32:01.931Z,0.36
2023-01-29T14:35:01.424Z,1.75
2023-01-29T14:37:48.327Z,2.75
2023-01-29T14:40:19.589Z,3.17
2023-01-29T14:42:57.487Z,2.47
2023-01-29T14:45:34.550Z,1.75
2023-01-29T14:48:10.110Z,1.24
2023-01-29T14:50:48.828Z,0.87
2023-01-29T14:53:23.455Z,0.54
2023-01-29T14:56:10.816Z,0.26
2023-01-29T14:58:47.343Z,0.01
2023-01-29T15:01:40.243Z,-0.17
2023-01-29T15:04:23.800Z,-0.33
2023-01-29T15:07:39.110Z,-0.42
2023-01-29T15:10:23.328Z,0.00
2023-01-29T15:13:08.094Z,1.45
2023-01-29T15:16:04.847Z,2.26
2023-01-29T15:18:43.192Z,2.67
2023-01-29T15:21:14.319Z,1.99
2023-01-29T15:23:48.360Z,1.26
2023-01-29T15:26:33.114Z,0.76
2023-01-29T15:29:04.547Z,0.36
2023-01-29T15:31:46.876Z,0.09
2023-01-29T15:34:25.049Z,-0.18
2023-01-29T15:36:53.527Z,-0.36
2023-01-29T15:39:42.790Z,-0.51
2023-01-29T15:42:21.840Z,-0.62
2023-01-29T15:44:50.212Z,0.10
2023-01-29T15:47:28.877Z,1.43
2023-01-29T15:49:57.625Z,2.38
2023-01-29T15:52:35.294Z,2.89
2023-01-29T15:55:06.081Z,2.60
2023-01-29T15:57:40.686Z,1.84
2023-01-29T16:00:23.178Z,1.19
2023-01-29T16:02:51.886Z,0.64
2023-01-29T16:05:30.186Z,0.31
2023-01-29T16:07:58.944Z,0.04
2023-01-29T16:10:55.898Z,-0.16
2023-01-29T16:13:36.975Z,0.02
2023-01-29T16:16:17.271Z,1.35
2023-01-29T16:18:59.975Z,2.35
2023-01-29T16:21:37.955Z,2.94
2023-01-29T16:24:22.544Z,2.55
2023-01-29T16:26:59.600Z,1.62
2023-01-29T16:29:34.253Z,0.98
2023-01-29T16:32:16.395Z,0.51
2023-01-29T16:34:48.261Z,0.11
2023-01-29T16:37:29.238Z,-0.14
2023-01-29T16:40:00.108Z,-0.30
2023-01-29T16:42:32.355Z,0.51
2023-01-29T16:45:02.765Z,1.58
2023-01-29T16:47:43.846Z,2.01
2023-01-29T16:50:35.893Z,1.53
2023-01-29T16:53:27.425Z,0.87
2023-01-29T16:56:07.569Z,0.33
2023-01-29T16:58:36.084Z,0.02
2023-01-29T17:01:10.299Z,-0.20
2023-01-29T17:03:43.880Z,-0.33
2023-01-29T17:06:17.468Z,0.49
2023-01-29T17:08:46.227Z,1.50
2023-01-29T17:11:33.552Z,2.10
2023-01-29T17:14:09.280Z,2.04
2023-01-29T17:17:13.040Z,1.39
2023-01-29T17:19:44.558Z,0.74
2023-01-29T17:22:18.498Z,0.36
2023-01-29T17:24:49.193Z,0.08
2023-01-29T17:27:30.938Z,-0.00
2023-01-29T17:29:59.365Z,0.95
2023-01-29T17:32:44.541Z,1.80
2023-01-29T17:35:20.479Z,1.99
2023-01-29T17:37:49.289Z,1.44
2023-01-29T17:40:49.269Z,0.85
2023-01-29T17:43:17.575Z,0.33
2023-01-29T17:45:49.482Z,0.04
2023-01-29T17:48:25.461Z,0.07
2023-01-29T17:50:56.564Z,0.91
2023-01-29T17:53:46.826Z,1.77
2023-01-29T17:56:30.666Z,2.56
2023-01-29T17:59:19.533Z,2.74
2023-01-29T18:02:09.691Z,2.00
2023-01-29T18:05:06.921Z,1.15
2023-01-29T18:07:45.655Z,0.61
2023-01-29T18:10:23.778Z,1.19
2023-01-29T18:12:55.003Z,1.97
2023-01-29T18:15:23.977Z,2.60
2023-01-29T18:17:53.265Z,2.83
2023-01-29T18:20:23.991Z,2.30
2023-01-29T18:23:19.432Z,1.51
2023-01-29T18:25:47.946Z,0.80
2023-01-29T18:28:17.342Z,0.38
2023-01-29T18:30:51.473Z,0.43
2023-01-29T18:33:24.548Z,1.61
2023-01-29T18:35:56.404Z,2.91
2023-01-29T18:38:30.312Z,3.50
2023-01-29T18:41:07.594Z,2.79
2023-01-29T18:44:01.888Z,1.78
2023-01-29T18:46:33.871Z,1.04
2023-01-29T18:49:05.334Z,0.52
2023-01-29T18:51:34.082Z,0.29
2023-01-29T18:54:02.637Z,1.57
2023-01-29T18:56:31.285Z,3.10
2023-01-29T18:59:00.038Z,3.65
2023-01-29T19:01:32.402Z,2.69
2023-01-29T19:04:04.062Z,1.66
2023-01-29T19:06:38.046Z,0.99
2023-01-29T19:09:07.060Z,1.06
2023-01-29T19:11:38.284Z,2.34
2023-01-29T19:14:06.905Z,3.67
2023-01-29T19:16:38.437Z,4.17
2023-01-29T19:19:06.769Z,3.37
2023-01-29T19:21:37.144Z,2.28
2023-01-29T19:24:06.750Z,1.42
2023-01-29T19:26:36.264Z,0.89
2023-01-29T19:29:16.404Z,1.73
2023-01-29T19:31:47.777Z,3.20
2023-01-29T19:34:16.439Z,4.09
2023-01-29T19:36:45.025Z,3.95
2023-01-29T19:39:24.150Z,2.95
2023-01-29T19:41:57.542Z,1.91
2023-01-29T19:44:31.455Z,1.23
2023-01-29T19:47:02.471Z,0.72
2023-01-29T19:49:31.505Z,0.75
2023-01-29T19:52:01.379Z,1.67
2023-01-29T19:54:30.422Z,2.41
2023-01-29T19:57:04.528Z,2.86
2023-01-29T19:59:36.664Z,3.22
2023-01-29T20:02:05.649Z,3.46
2023-01-29T20:04:37.004Z,3.50
2023-01-29T20:07:05.718Z,2.72
2023-01-29T20:09:34.180Z,1.82
2023-01-29T20:12:04.900Z,1.17
2023-01-29T20:14:33.824Z,0.70
2023-01-29T20:17:02.375Z,0.78
2023-01-29T20:19:35.154Z,1.60
2023-01-29T20:22:03.460Z,2.24
2023-01-29T20:24:39.282Z,2.72
2023-01-29T20:27:07.557Z,3.01
2023-01-29T20:29:43.924Z,2.76
2023-01-29T20:32:15.153Z,1.93
2023-01-29T20:34:53.170Z,1.14
2023-01-29T20:37:25.027Z,1.00
2023-01-29T20:39:53.656Z,1.82
2023-01-29T20:42:27.588Z,2.50
2023-01-29T20:44:58.761Z,2.99
2023-01-29T20:47:35.373Z,3.24
2023-01-29T20:50:08.688Z,2.68
2023-01-29T20:52:38.035Z,1.68
2023-01-29T20:55:15.720Z,1.00
2023-01-29T20:58:05.761Z,0.69
2023-01-29T21:00:35.041Z,1.46
2023-01-29T21:03:22.662Z,2.22
2023-01-29T21:05:54.516Z,2.79
2023-01-29T21:08:22.982Z,3.09
2023-01-29T21:11:00.424Z,3.13
2023-01-29T21:13:31.488Z,2.27
2023-01-29T21:16:06.082Z,1.45
2023-01-29T21:18:40.035Z,0.76
2023-01-29T21:21:11.184Z,0.56
2023-01-29T21:23:40.084Z,1.30
2023-01-29T21:26:11.010Z,2.11
2023-01-29T21:28:42.558Z,2.61
2023-01-29T21:31:20.163Z,3.01
2023-01-29T21:33:53.645Z,2.76
2023-01-29T21:36:35.207Z,1.83
2023-01-29T21:39:16.677Z,1.04
2023-01-29T21:42:07.202Z,0.48
2023-01-29T21:44:41.529Z,0.64
2023-01-29T21:47:13.079Z,1.36
2023-01-29T21:49:51.597Z,2.06
2023-01-29T21:52:33.595Z,2.57
2023-01-29T21:55:32.807Z,2.88
2023-01-29T21:58:05.691Z,2.71
2023-01-29T22:01:35.804Z,1.71
2023-01-29T22:04:20.460Z,0.79
2023-01-29T22:06:56.729Z,0.95
2023-01-29T22:10:14.013Z,1.71
2023-01-29T22:12:54.103Z,2.38
2023-01-29T22:15:30.988Z,2.71
2023-01-29T22:18:02.734Z,3.08
2023-01-29T22:20:47.625Z,3.29
2023-01-29T22:23:23.854Z,2.78
2023-01-29T22:26:06.985Z,1.86
2023-01-29T22:28:40.475Z,1.05
2023-01-29T22:31:22.990Z,0.89
2023-01-29T22:33:53.335Z,1.65
2023-01-29T22:36:22.004Z,2.04
2023-01-29T22:38:50.383Z,2.62
2023-01-29T22:41:21.216Z,2.79
2023-01-29T22:43:52.553Z,3.10
2023-01-29T22:46:21.094Z,3.32
2023-01-29T22:48:52.375Z,3.39
2023-01-29T22:51:20.781Z,2.56
2023-01-29T22:53:54.812Z,1.60
2023-01-29T22:56:25.912Z,0.89
2023-01-29T22:58:56.218Z,0.71
2023-01-29T23:01:30.213Z,1.40
2023-01-29T23:04:03.843Z,2.10
2023-01-29T23:06:51.507Z,2.52
2023-01-29T23:09:25.900Z,2.90
2023-01-29T23:11:57.240Z,3.12
2023-01-29T23:14:32.067Z,3.37
2023-01-29T23:17:00.623Z,3.58
2023-01-29T23:19:32.057Z,3.22
2023-01-29T23:22:05.392Z,2.10
2023-01-29T23:24:33.972Z,1.23
2023-01-29T23:27:25.595Z,0.64
2023-01-29T23:29:54.119Z,1.04
2023-01-29T23:32:25.217Z,1.78
2023-01-29T23:34:54.101Z,2.34
2023-01-29T23:37:22.589Z,2.78
2023-01-29T23:39:53.472Z,2.99
2023-01-29T23:42:24.871Z,3.29
2023-01-29T23:45:15.142Z,3.56
2023-01-29T23:47:46.000Z,3.00
2023-01-29T23:50:14.561Z,1.98
2023-01-29T23:52:45.928Z,1.28
2023-01-29T23:55:14.553Z,0.97
2023-01-29T23:57:45.344Z,1.62
